Latest Weather Observations for Camden

IDN60901

Issued at 1:45 pm EDT Sunday 26 October 2014 (issued every 10 minutes, with the page automatically refreshed every 10 minutes)

About weather observations | Map of Sydney area stations | Latest observations for Sydney area | Other Formats
Station Details ID: 068192 Name: CAMDEN AIRPORT AWS Lat: -34.04 Lon: 150.69 Height: 73.9 m
Data from the previous 72 hours. | See also: Recent months at Camden
Date/Time
EDT
Tmp

°C
App
Tmp
°C
Dew
Point
°C
Rel
Hum
%
Delta-T

°C
Wind Press
QNH
hPa
Press
MSL
hPa
Rain
since
9 am
mm
Dir
 
Spd
km/h
Gust
km/h
Spd
kts
Gust
kts
26/01:30pm 33.8 32.1 9.8 23 13.8 NW 9 17 5 9 1007.7 1007.6 0.0
26/01:00pm 32.6 32.3 12.8 30 11.9 NE 6 9 3 5 1008.1 1008.0 0.0
26/12:30pm 31.4 31.5 15.4 38 9.9 ENE 9 17 5 9 1008.4 1008.3 0.0
26/12:00pm 29.6 30.3 15.7 43 8.6 NE 6 11 3 6 1008.8 1008.7 0.0
26/11:30am 28.4 30.5 18.2 54 6.5 NNE 4 9 2 5 1009.1 1009.0 0.0
26/11:00am 27.2 29.7 18.2 58 5.7 NNW 2 7 1 4 1009.3 1009.2 0.0
26/10:30am 24.9 25.9 16.3 59 5.3 WNW 6 11 3 6 1009.8 1009.7 0.0
26/10:00am 23.6 25.3 16.1 62 4.6 NNW 2 9 1 5 1010.2 1010.1 0.0
26/09:30am 22.1 23.4 16.1 69 3.6 NNW 4 9 2 5 1010.4 1010.3 0.0
26/09:00am 21.0 22.2 16.0 73 3.0 WSW 4 7 2 4 1010.7 1010.6 0.0
26/08:57am 21.1 22.5 16.3 74 2.9 WSW 4 7 2 4 1010.7 1010.6 0.0
26/08:30am 19.9 20.9 16.3 80 2.2 SW 6 9 3 5 1010.9 1010.8 0.0
26/08:00am 19.5 21.7 16.5 83 1.8 CALM 0 0 0 0 1011.1 1011.0 0.0
26/07:30am 19.1 21.4 16.7 86 1.4 CALM 0 6 0 3 1011.2 1011.1 0.0
26/07:00am 18.6 20.9 16.8 89 1.1 SSE 0 0 0 0 1011.0 1010.9 0.0
26/06:30am 18.1 20.3 16.4 90 1.0 CALM 0 6 0 3 1010.9 1010.8 0.0
26/06:00am 17.9 18.6 16.2 90 1.0 ESE 7 9 4 5 1010.7 1010.6 0.0
26/05:30am 17.9 18.8 16.2 90 1.0 ESE 6 7 3 4 1010.8 1010.7 0.0
26/05:00am 18.1 20.2 16.3 89 1.1 CALM 0 0 0 0 1011.0 1010.9 0.0
26/04:30am 18.1 20.2 16.3 89 1.1 CALM 0 0 0 0 1011.2 1011.1 0.0
26/04:00am 18.3 20.4 16.3 88 1.2 CALM 0 0 0 0 1011.3 1011.2 0.0
26/03:30am 18.6 20.4 16.4 87 1.3 SE 2 7 1 4 1012.0 1011.9 0.0
26/03:00am 18.6 20.8 16.4 87 1.3 CALM 0 0 0 0 1012.5 1012.4 0.0
26/02:30am 18.5 20.6 16.3 87 1.3 CALM 0 0 0 0 1012.8 1012.7 0.0
26/02:00am 18.8 19.8 16.4 86 1.4 WSW 6 7 3 4 1013.1 1013.0 0.0
26/01:30am 19.0 21.2 16.4 85 1.6 CALM 0 0 0 0 1013.6 1013.5 0.0
26/01:00am 18.9 19.9 16.3 85 1.6 N 6 9 3 5 1014.2 1014.1 0.0
26/12:30am 18.9 19.7 16.3 85 1.6 NE 7 9 4 5 1015.0 1014.9 0.0
26/12:27am 18.8 19.5 16.2 85 1.6 NE 7 11 4 6 1015.0 1014.9 0.0
26/12:19am 18.7 18.7 16.3 86 1.4 NE 11 17 6 9 1015.1 1015.0 0.0
26/12:00am 18.6 19.0 16.2 86 1.4 NE 9 15 5 8 1015.8 1015.6 0.0
 
Date/Time
EDT
Tmp

°C
App
Tmp
°C
Dew
Point
°C
Rel
Hum
%
Delta-T

°C
Wind Press
QNH
hPa
Press
MSL
hPa
Rain
since
9 am
mm
Dir
 
Spd
km/h
Gust
km/h
Spd
kts
Gust
kts
25/11:30pm 18.9 18.9 16.3 85 1.6 NNE 11 13 6 7 1016.1 1015.9 0.0
25/11:00pm 19.3 17.8 16.2 82 1.9 WSW 19 24 10 13 1018.0 1017.8 0.0
25/10:30pm 19.4 18.9 15.9 80 2.1 S 13 17 7 9 1017.5 1017.3 0.0
25/10:00pm 19.4 20.0 15.7 79 2.2 ENE 7 13 4 7 1016.4 1016.2 0.0
25/09:30pm 19.3 19.7 16.2 82 1.9 ENE 9 13 5 7 1016.7 1016.5 0.0
25/09:00pm 19.1 20.7 16.0 82 1.8 ESE 2 6 1 3 1016.9 1016.7 0.0
25/08:55pm 19.0 20.2 15.9 82 1.8 E 4 6 2 3 1016.9 1016.7 0.0
25/08:30pm 19.4 20.1 16.1 81 2.0 E 7 11 4 6 1016.1 1015.9 0.0
25/08:00pm 20.0 20.9 16.2 79 2.3 NE 6 9 3 5 1015.3 1015.2 0.0
25/07:30pm 20.9 21.3 16.3 75 2.8 SE 9 11 5 6 1015.1 1015.0 0.0
25/07:00pm 21.3 20.2 16.3 73 3.0 SE 17 24 9 13 1014.3 1014.2 0.0
25/06:30pm 22.1 22.2 16.4 70 3.5 SE 11 15 6 8 1014.1 1014.0 0.0
25/06:00pm 23.8 22.6 16.1 62 4.7 SSE 17 22 9 12 1013.6 1013.5 0.0
25/05:30pm 26.4 26.2 16.6 55 6.1 NE 13 19 7 10 1013.1 1013.0 0.0
25/05:00pm 27.3 26.8 16.0 50 7.0 E 13 15 7 8 1013.0 1012.9 0.0
25/04:30pm 27.7 26.7 16.6 50 6.9 E 17 22 9 12 1012.6 1012.5 0.0
25/04:00pm 28.6 28.4 16.8 48 7.4 E 13 20 7 11 1012.4 1012.3 0.0
25/03:30pm 29.2 27.9 16.7 46 7.8 E 19 28 10 15 1012.5 1012.4 0.0
25/03:00pm 30.5 29.5 17.9 47 8.1 ENE 20 28 11 15 1012.3 1012.2 0.0
25/02:30pm 32.2 30.6 16.5 39 9.9 ENE 20 35 11 19 1012.4 1012.3 0.0
25/02:00pm 33.4 31.9 11.9 27 12.7 E 11 17 6 9 1012.8 1012.7 0.0
25/01:30pm 32.5 31.4 13.2 31 11.6 ENE 11 17 6 9 1013.2 1013.1 0.0
25/01:00pm 33.1 33.0 13.2 30 12.0 ENE 6 9 3 5 1013.6 1013.5 0.0
25/12:30pm 32.3 31.8 12.5 30 11.8 NNW 7 13 4 7 1013.9 1013.8 0.0
25/12:00pm 31.5 30.8 13.3 33 10.9 ENE 9 13 5 7 1014.3 1014.2 0.0
25/11:30am 30.9 30.9 13.7 35 10.4 WSW 6 9 3 5 1014.8 1014.7 0.0
25/11:00am 29.5 30.2 14.5 40 9.1 SW 4 9 2 5 1015.0 1014.9 0.0
25/10:30am 28.3 29.2 15.2 44 8.0 WSW 4 7 2 4 1015.2 1015.1 0.0
25/10:00am 26.7 27.4 14.5 47 7.3 NW 4 7 2 4 1015.3 1015.2 0.0
25/09:30am 24.6 25.2 15.8 58 5.4 E 7 11 4 6 1015.2 1015.1 0.0
25/09:00am 21.2 22.8 16.8 76 2.7 NE 4 7 2 4 1015.6 1015.4 0.0
25/08:40am 18.7 21.8 18.7 100 0.0 CALM 0 0 0 0 1015.6 1015.4 0.0
25/08:39am 18.5 21.5 18.5 100 0.0 CALM 0 0 0 0 1015.6 1015.4 0.0
25/08:30am 17.8 20.5 17.8 100 0.0 CALM 0 0 0 0 1015.6 1015.4 0.0
25/08:23am 17.5 20.1 17.5 100 0.0 CALM 0 0 0 0 1015.6 1015.4 0.0
25/08:00am 16.2 18.3 16.2 100 0.0 CALM 0 0 0 0 1015.5 1015.3 0.0
25/07:30am 15.2 16.8 15.0 99 0.1 CALM 0 0 0 0 1015.2 1015.1 0.0
25/07:00am 14.8 16.3 14.6 99 0.1 CALM 0 6 0 3 1014.9 1014.8 0.0
25/06:30am 13.9 13.9 13.7 99 0.1 SSE 6 7 3 4 1014.4 1014.3 0.0
25/06:04am 13.0 13.9 12.8 99 0.1 CALM 0 0 0 0 1014.0 1013.9 0.0
25/06:00am 13.2 14.1 13.0 99 0.1 CALM 0 0 0 0 1014.0 1013.9 0.0
25/05:30am 14.2 15.5 14.0 99 0.1 CALM 0 0 0 0 1013.3 1013.2 0.0
25/05:19am 14.7 16.1 14.5 99 0.1 CALM 0 0 0 0 1013.1 1013.0 0.0
25/05:10am 14.5 15.9 14.3 99 0.1 CALM 0 0 0 0 1013.0 1012.9 0.0
25/05:07am 14.2 15.5 14.0 99 0.1 CALM 0 0 0 0 1013.0 1012.9 0.0
25/05:06am 14.2 15.5 14.0 99 0.1 CALM 0 0 0 0 1013.0 1012.9 0.0
25/05:00am 14.2 15.4 13.9 98 0.2 CALM 0 0 0 0 1013.1 1013.0 0.0
25/04:59am 14.0 15.2 13.7 98 0.2 CALM 0 0 0 0 1013.0 1012.9 0.0
25/04:56am 13.9 15.0 13.4 97 0.3 CALM 0 0 0 0 1013.1 1013.0 0.0
25/04:55am 13.9 15.0 13.4 97 0.3 CALM 0 0 0 0 1013.1 1013.0 0.0
25/04:54am 13.8 14.8 13.3 97 0.3 CALM 0 0 0 0 1013.0 1012.9 0.0
25/04:53am 14.0 15.1 13.5 97 0.3 CALM 0 0 0 0 1013.0 1012.9 0.0
25/04:39am 14.5 15.8 14.0 97 0.3 CALM 0 0 0 0 1012.9 1012.8 0.0
25/04:38am 14.6 15.9 14.1 97 0.3 CALM 0 0 0 0 1012.9 1012.8 0.0
25/04:35am 14.9 16.4 14.6 98 0.2 CALM 0 0 0 0 1012.8 1012.7 0.0
25/04:30am 14.9 16.4 14.6 98 0.2 CALM 0 0 0 0 1012.8 1012.7 0.0
25/04:01am 16.0 17.9 15.8 99 0.1 CALM 0 0 0 0 1012.6 1012.5 0.0
25/04:00am 16.0 17.9 15.8 99 0.1 CALM 0 0 0 0 1012.6 1012.5 0.0
25/03:58am 15.9 17.8 15.7 99 0.1 CALM 0 0 0 0 1012.6 1012.5 0.0
25/03:48am 16.0 17.9 15.7 98 0.2 CALM 0 0 0 0 1012.4 1012.3 0.0
25/03:30am 15.6 17.1 14.6 94 0.6 CALM 0 0 0 0 1012.4 1012.3 0.0
25/03:28am 15.6 17.1 14.6 94 0.6 CALM 0 0 0 0 1012.4 1012.3 0.0
25/03:00am 16.6 17.2 15.8 95 0.5 S 7 9 4 5 1012.3 1012.2 0.0
25/02:30am 17.3 19.2 15.8 91 0.9 CALM 0 0 0 0 1012.3 1012.2 0.0
25/02:00am 17.9 19.9 16.1 89 1.1 CALM 0 7 0 4 1012.5 1012.4 0.0
25/01:30am 18.3 19.3 16.3 88 1.2 WSW 6 6 3 3 1012.6 1012.5 0.0
25/01:00am 18.8 21.0 16.6 87 1.3 CALM 0 0 0 0 1012.6 1012.5 0.0
25/12:30am 19.1 20.8 16.3 84 1.7 WSW 2 6 1 3 1012.6 1012.5 0.0
25/12:00am 19.0 19.7 16.0 83 1.8 WSW 7 7 4 4 1012.8 1012.7 0.0
 
Date/Time
EDT
Tmp

°C
App
Tmp
°C
Dew
Point
°C
Rel
Hum
%
Delta-T

°C
Wind Press
QNH
hPa
Press
MSL
hPa
Rain
since
9 am
mm
Dir
 
Spd
km/h
Gust
km/h
Spd
kts
Gust
kts
24/11:30pm 19.6 20.6 16.3 81 2.0 S 6 9 3 5 1012.9 1012.8 0.0
24/11:00pm 20.1 20.7 16.7 81 2.1 S 9 13 5 7 1013.2 1013.1 0.0
24/10:30pm 20.0 20.9 16.6 81 2.1 SSW 7 11 4 6 1012.9 1012.8 0.0
24/10:00pm 20.9 22.6 16.3 75 2.8 ESE 2 7 1 4 1012.8 1012.7 0.0
24/09:30pm 21.5 23.8 16.7 74 2.9 CALM 0 0 0 0 1013.3 1013.2 0.0
24/09:00pm 21.9 23.3 16.4 71 3.3 ESE 4 11 2 6 1013.4 1013.3 0.0
24/08:30pm 22.2 23.9 16.2 69 3.6 E 2 7 1 4 1012.8 1012.7 0.0
24/08:00pm 22.8 23.6 16.4 67 3.9 E 7 11 4 6 1012.6 1012.5 0.0
24/07:30pm 23.5 24.3 16.3 64 4.4 E 7 11 4 6 1012.4 1012.3 0.0
24/07:00pm 24.4 24.2 16.6 61 4.8 E 13 19 7 10 1012.0 1011.9 0.0
24/06:30pm 25.8 25.8 17.2 59 5.4 E 13 20 7 11 1011.9 1011.8 0.0
24/06:00pm 26.6 25.8 17.1 56 5.9 ENE 17 24 9 13 1011.7 1011.6 0.0
24/05:30pm 28.1 27.6 17.0 51 7.0 E 15 22 8 12 1011.8 1011.7 0.0
24/05:00pm 30.9 28.7 14.5 37 10.0 NNE 19 28 10 15 1011.8 1011.7 0.0
24/04:30pm 30.0 27.2 13.3 36 10.0 NNE 20 26 11 14 1012.2 1012.1 0.0
24/04:00pm 30.0 27.6 13.7 37 9.8 N 19 28 10 15 1012.4 1012.3 0.0
24/03:30pm 29.8 25.8 13.1 36 9.9 NNE 26 35 14 19 1012.9 1012.8 0.0
24/03:00pm 29.4 27.0 14.4 40 9.1 NNE 20 32 11 17 1013.5 1013.4 0.0
24/02:30pm 28.7 26.3 14.5 42 8.6 N 20 30 11 16 1014.2 1014.1 0.0
24/02:00pm 28.3 26.5 15.9 47 7.7 N 20 28 11 15 1014.9 1014.8 0.0
24/01:30pm 27.5 25.3 14.5 45 7.8 NNE 19 30 10 16 1015.6 1015.4 0.0
24/01:00pm 27.0 25.1 15.1 48 7.2 NNE 19 26 10 14 1016.4 1016.2 0.0
24/12:30pm 25.4 23.3 14.8 52 6.4 N 19 26 10 14 1017.1 1016.9 0.0
24/12:00pm 24.6 22.8 15.5 57 5.5 NNE 19 24 10 13 1017.7 1017.5 0.0
24/11:30am 23.3 22.3 14.6 58 5.2 NNE 13 20 7 11 1018.6 1018.5 0.0
24/11:00am 22.7 22.5 16.7 69 3.7 N 13 19 7 10 1019.2 1019.1 0.0
24/10:30am 20.8 21.2 15.4 71 3.2 N 7 11 4 6 1019.9 1019.8 0.0
24/10:00am 19.1 19.7 15.4 79 2.2 SSE 6 17 3 9 1020.4 1020.3 0.0
24/09:30am 19.3 19.7 14.8 75 2.6 WNW 6 9 3 5 1020.6 1020.5 0.0
24/09:00am 19.2 19.5 14.9 76 2.5 NW 7 9 4 5 1020.5 1020.4 -
24/08:30am 18.4 19.2 15.8 85 1.5 N 6 7 3 4 1020.4 1020.3 -
24/08:00am 18.0 19.9 15.8 87 1.3 CALM 0 0 0 0 1020.4 1020.3 -
24/07:52am 17.4 19.4 16.1 92 0.8 CALM 0 0 0 0 1020.2 1020.1 -
24/07:30am 16.6 18.5 15.8 95 0.5 CALM 0 2 0 1 1020.5 1020.4 -
24/07:28am 16.4 17.9 15.8 96 0.4 NNW 2 6 1 3 1020.5 1020.4 -
24/07:12am 16.1 16.6 15.6 97 0.3 NNW 7 11 4 6 1020.4 1020.3 -
24/07:00am 16.0 15.4 15.7 98 0.2 N 13 15 7 8 1019.9 1019.8 -
24/06:47am 15.8 15.8 15.3 97 0.3 NNE 9 15 5 8 1020.0 1019.9 -
24/06:30am 16.1 16.8 15.5 96 0.4 S 6 9 3 5 1020.7 1020.6 -
24/06:00am 16.1 15.8 15.5 96 0.3 SSW 11 15 6 8 1020.5 1020.4 -
24/05:47am 15.8 15.4 15.3 97 0.3 S 11 13 6 7 1019.9 1019.8 -
24/05:30am 15.5 15.7 14.7 95 0.5 NE 7 9 4 5 1019.4 1019.3 -
24/05:26am 15.0 15.5 14.0 94 0.6 N 4 9 2 5 1019.3 1019.2 -
24/05:00am 16.3 17.5 14.8 91 0.9 SSE 2 7 1 4 1019.9 1019.8 -
24/04:30am 16.6 17.1 15.1 91 0.9 SE 6 11 3 6 1019.7 1019.6 -
24/04:00am 16.7 16.5 14.7 88 1.2 ENE 9 11 5 6 1019.4 1019.3 -
24/03:30am 16.8 16.6 14.8 88 1.2 N 9 15 5 8 1019.8 1019.7 -
24/03:00am 16.7 14.6 15.1 90 0.9 WSW 20 24 11 13 1021.1 1021.0 0.0
24/02:30am 15.5 15.9 13.7 89 1.0 NNW 4 7 2 4 1019.6 1019.5 -
24/02:00am 15.4 14.9 13.9 91 0.8 NNW 9 11 5 6 1019.7 1019.6 -
24/01:30am 15.4 15.8 13.8 90 0.9 N 4 9 2 5 1020.4 1020.3 -
24/01:00am 15.3 15.0 13.3 88 1.1 S 7 9 4 5 1021.2 1021.1 -
24/12:30am 15.4 15.1 13.4 88 1.1 SSW 7 11 4 6 1021.1 1021.0 -
24/12:00am 15.3 15.0 13.3 88 1.1 SSE 7 9 4 5 1020.7 1020.6 -
 
Date/Time
EDT
Tmp

°C
App
Tmp
°C
Dew
Point
°C
Rel
Hum
%
Delta-T

°C
Wind Press
QNH
hPa
Press
MSL
hPa
Rain
since
9 am
mm
Dir
 
Spd
km/h
Gust
km/h
Spd
kts
Gust
kts
23/11:30pm 15.5 15.6 12.6 83 1.6 E 4 9 2 5 1020.8 1020.7 -
23/11:00pm 15.9 16.7 12.6 81 1.8 CALM 0 0 0 0 1020.7 1020.6 -
23/10:30pm 17.3 17.9 13.0 76 2.4 N 2 6 1 3 1020.8 1020.7 -
23/10:00pm 17.7 17.8 13.8 78 2.2 N 6 7 3 4 1020.5 1020.4 -
23/09:30pm 19.0 18.7 12.7 67 3.5 SSE 6 9 3 5 1020.2 1020.1 -
23/09:00pm 19.6 19.5 13.3 67 3.6 SSE 6 9 3 5 1019.7 1019.6 0.0
23/08:30pm 20.2 19.6 13.4 65 3.9 E 9 15 5 8 1019.1 1019.0 -
23/08:00pm 20.9 20.4 13.8 64 4.1 E 9 11 5 6 1018.6 1018.5 -
23/07:30pm 21.2 22.4 14.8 67 3.8 N 2 7 1 4 1018.5 1018.4 -
23/07:00pm 22.3 22.9 15.4 65 4.1 ENE 6 9 3 5 1018.1 1017.9 -
23/06:30pm 23.6 23.0 13.5 53 5.9 SSE 9 13 5 7 1017.9 1017.7 -
23/06:00pm 24.7 23.0 12.6 47 7.0 ESE 13 19 7 10 1017.2 1017.0 -
23/05:30pm 25.4 24.5 12.6 45 7.4 E 9 15 5 8 1017.3 1017.1 -
23/05:00pm 26.3 24.5 12.0 41 8.2 E 13 19 7 10 1016.6 1016.4 -
23/04:30pm 28.0 24.8 11.1 35 9.7 ENE 19 24 10 13 1016.0 1015.8 -
23/04:00pm 28.5 24.8 10.2 32 10.3 E 20 28 11 15 1015.5 1015.3 -
23/03:30pm 30.5 26.9 10.5 29 11.5 ESE 20 32 11 17 1015.1 1015.0 -
23/03:00pm 31.9 30.7 12.7 31 11.4 ESE 11 22 6 12 1014.8 1014.7 -
23/02:30pm 31.2 28.9 13.0 33 10.9 E 17 26 9 14 1014.9 1014.8 0.0
23/02:00pm 31.9 31.2 13.2 32 11.2 S 9 15 5 8 1015.3 1015.2 0.0

Latest Capital City Observations: Canberra | Sydney | Melbourne | Brisbane | Adelaide | Perth | Hobart | Darwin

Other Formats:

Comma delimited format used in spreadsheet applications
http://www.bom.gov.au/fwo/IDN60901/IDN60901.94755.axf

JavaScript Object Notation format (JSON) in row-major order
http://www.bom.gov.au/fwo/IDN60901/IDN60901.94755.json